sensor_id;sensor_type;location;lat;lon;timestamp;temperature;humidity
25668;DHT22;18003;-33.830;151.202;2022-08-04T00:01:07;16.50;99.90
25668;DHT22;18003;-33.830;151.202;2022-08-04T00:03:51;16.50;99.90
25668;DHT22;18003;-33.830;151.202;2022-08-04T00:06:33;16.50;99.90
25668;DHT22;18003;-33.830;151.202;2022-08-04T00:09:06;16.50;99.90
25668;DHT22;18003;-33.830;151.202;2022-08-04T00:11:32;16.60;99.90
25668;DHT22;18003;-33.830;151.202;2022-08-04T00:14:08;16.60;99.90
25668;DHT22;18003;-33.830;151.202;2022-08-04T00:16:37;16.60;99.90
25668;DHT22;18003;-33.830;151.202;2022-08-04T00:19:15;16.60;99.90
25668;DHT22;18003;-33.830;151.202;2022-08-04T00:21:40;16.60;99.90
25668;DHT22;18003;-33.830;151.202;2022-08-04T00:24:10;16.50;99.90
25668;DHT22;18003;-33.830;151.202;2022-08-04T00:26:41;16.60;99.90
25668;DHT22;18003;-33.830;151.202;2022-08-04T00:29:12;16.60;99.90
25668;DHT22;18003;-33.830;151.202;2022-08-04T00:31:42;16.60;99.90
25668;DHT22;18003;-33.830;151.202;2022-08-04T00:34:12;16.70;99.90
25668;DHT22;18003;-33.830;151.202;2022-08-04T00:36:46;16.70;99.90
25668;DHT22;18003;-33.830;151.202;2022-08-04T00:39:16;16.80;99.90
25668;DHT22;18003;-33.830;151.202;2022-08-04T00:48:18;16.70;99.90
25668;DHT22;18003;-33.830;151.202;2022-08-04T00:56:49;16.80;99.90
25668;DHT22;18003;-33.830;151.202;2022-08-04T01:05:12;16.70;99.90
25668;DHT22;18003;-33.830;151.202;2022-08-04T01:13:35;16.70;99.90
25668;DHT22;18003;-33.830;151.202;2022-08-04T01:16:06;16.80;99.90
25668;DHT22;18003;-33.830;151.202;2022-08-04T01:19:02;16.80;99.90
25668;DHT22;18003;-33.830;151.202;2022-08-04T01:27:08;16.80;99.90
25668;DHT22;18003;-33.830;151.202;2022-08-04T01:29:42;16.80;99.90
25668;DHT22;18003;-33.830;151.202;2022-08-04T01:32:18;16.80;99.90
25668;DHT22;18003;-33.830;151.202;2022-08-04T01:34:42;16.80;99.90
25668;DHT22;18003;-33.830;151.202;2022-08-04T01:40:03;16.80;99.90
25668;DHT22;18003;-33.830;151.202;2022-08-04T01:42:35;16.80;99.90
25668;DHT22;18003;-33.830;151.202;2022-08-04T01:45:05;16.80;99.90
25668;DHT22;18003;-33.830;151.202;2022-08-04T01:47:36;16.80;99.90
25668;DHT22;18003;-33.830;151.202;2022-08-04T01:50:08;16.80;99.90
25668;DHT22;18003;-33.830;151.202;2022-08-04T01:52:40;16.90;99.90
25668;DHT22;18003;-33.830;151.202;2022-08-04T01:55:12;16.90;99.90
25668;DHT22;18003;-33.830;151.202;2022-08-04T01:57:46;16.90;99.90
25668;DHT22;18003;-33.830;151.202;2022-08-04T02:00:19;16.90;99.90
25668;DHT22;18003;-33.830;151.202;2022-08-04T02:02:49;16.90;99.90
25668;DHT22;18003;-33.830;151.202;2022-08-04T02:05:21;16.80;99.90
25668;DHT22;18003;-33.830;151.202;2022-08-04T02:08:04;16.90;99.90
25668;DHT22;18003;-33.830;151.202;2022-08-04T02:11:02;16.90;99.90
25668;DHT22;18003;-33.830;151.202;2022-08-04T02:13:32;16.90;99.90
25668;DHT22;18003;-33.830;151.202;2022-08-04T02:16:21;16.90;99.90
25668;DHT22;18003;-33.830;151.202;2022-08-04T02:21:47;16.90;99.90
25668;DHT22;18003;-33.830;151.202;2022-08-04T02:24:17;16.80;99.90
25668;DHT22;18003;-33.830;151.202;2022-08-04T02:26:48;16.90;99.90
25668;DHT22;18003;-33.830;151.202;2022-08-04T02:29:20;16.80;99.90
25668;DHT22;18003;-33.830;151.202;2022-08-04T02:31:55;16.80;99.90
25668;DHT22;18003;-33.830;151.202;2022-08-04T02:37:09;16.80;99.90
25668;DHT22;18003;-33.830;151.202;2022-08-04T02:39:41;16.80;99.90
25668;DHT22;18003;-33.830;151.202;2022-08-04T02:42:12;16.80;99.90
25668;DHT22;18003;-33.830;151.202;2022-08-04T02:44:47;16.80;99.90
25668;DHT22;18003;-33.830;151.202;2022-08-04T02:47:15;16.80;99.90
25668;DHT22;18003;-33.830;151.202;2022-08-04T02:49:47;16.80;99.90
25668;DHT22;18003;-33.830;151.202;2022-08-04T02:52:16;16.80;99.90
25668;DHT22;18003;-33.830;151.202;2022-08-04T02:54:48;16.80;99.90
25668;DHT22;18003;-33.830;151.202;2022-08-04T02:57:22;16.80;99.90
25668;DHT22;18003;-33.830;151.202;2022-08-04T03:02:54;16.80;99.90
25668;DHT22;18003;-33.830;151.202;2022-08-04T03:05:39;16.80;99.90
25668;DHT22;18003;-33.830;151.202;2022-08-04T03:08:39;16.80;99.90
25668;DHT22;18003;-33.830;151.202;2022-08-04T03:14:36;16.80;99.90
25668;DHT22;18003;-33.830;151.202;2022-08-04T03:20:36;16.90;99.90
25668;DHT22;18003;-33.830;151.202;2022-08-04T03:26:25;16.90;99.90
25668;DHT22;18003;-33.830;151.202;2022-08-04T03:31:46;16.90;99.90
25668;DHT22;18003;-33.830;151.202;2022-08-04T04:24:32;17.00;99.90
25668;DHT22;18003;-33.830;151.202;2022-08-04T04:43:24;17.00;99.90
25668;DHT22;18003;-33.830;151.202;2022-08-04T04:54:28;17.00;99.90
25668;DHT22;18003;-33.830;151.202;2022-08-04T04:57:06;17.00;99.90
25668;DHT22;18003;-33.830;151.202;2022-08-04T04:59:37;17.00;99.90
25668;DHT22;18003;-33.830;151.202;2022-08-04T05:02:25;17.00;99.90
25668;DHT22;18003;-33.830;151.202;2022-08-04T05:15:52;17.00;99.90
25668;DHT22;18003;-33.830;151.202;2022-08-04T05:18:24;17.00;99.90
25668;DHT22;18003;-33.830;151.202;2022-08-04T05:21:03;16.90;99.90
25668;DHT22;18003;-33.830;151.202;2022-08-04T05:23:30;16.90;99.90
25668;DHT22;18003;-33.830;151.202;2022-08-04T05:26:05;17.00;99.90
25668;DHT22;18003;-33.830;151.202;2022-08-04T05:28:44;17.00;99.90
25668;DHT22;18003;-33.830;151.202;2022-08-04T05:31:23;17.00;99.90
25668;DHT22;18003;-33.830;151.202;2022-08-04T05:33:51;17.00;99.90
25668;DHT22;18003;-33.830;151.202;2022-08-04T05:36:22;17.00;99.90
25668;DHT22;18003;-33.830;151.202;2022-08-04T05:38:53;17.00;99.90
25668;DHT22;18003;-33.830;151.202;2022-08-04T05:41:26;17.00;99.90
25668;DHT22;18003;-33.830;151.202;2022-08-04T05:43:56;17.00;99.90
25668;DHT22;18003;-33.830;151.202;2022-08-04T05:46:28;17.00;99.90
25668;DHT22;18003;-33.830;151.202;2022-08-04T05:48:58;17.00;99.90
25668;DHT22;18003;-33.830;151.202;2022-08-04T05:51:29;17.10;99.90
25668;DHT22;18003;-33.830;151.202;2022-08-04T05:53:59;17.00;99.90
25668;DHT22;18003;-33.830;151.202;2022-08-04T05:56:30;17.00;99.90
25668;DHT22;18003;-33.830;151.202;2022-08-04T05:59:02;17.00;99.90
25668;DHT22;18003;-33.830;151.202;2022-08-04T06:01:34;17.00;99.90
25668;DHT22;18003;-33.830;151.202;2022-08-04T06:04:05;17.00;99.90
25668;DHT22;18003;-33.830;151.202;2022-08-04T06:06:35;17.00;99.90
25668;DHT22;18003;-33.830;151.202;2022-08-04T06:09:06;17.00;99.90
25668;DHT22;18003;-33.830;151.202;2022-08-04T06:11:36;17.00;99.90
25668;DHT22;18003;-33.830;151.202;2022-08-04T06:14:08;17.00;99.90
25668;DHT22;18003;-33.830;151.202;2022-08-04T06:16:40;17.00;99.90
25668;DHT22;18003;-33.830;151.202;2022-08-04T06:19:10;17.10;99.90
25668;DHT22;18003;-33.830;151.202;2022-08-04T06:21:43;17.10;99.90
25668;DHT22;18003;-33.830;151.202;2022-08-04T06:24:15;17.10;99.90
25668;DHT22;18003;-33.830;151.202;2022-08-04T06:26:44;17.00;99.90
25668;DHT22;18003;-33.830;151.202;2022-08-04T06:29:21;17.10;99.90
25668;DHT22;18003;-33.830;151.202;2022-08-04T06:31:54;17.10;99.90
25668;DHT22;18003;-33.830;151.202;2022-08-04T06:34:29;17.10;99.90
25668;DHT22;18003;-33.830;151.202;2022-08-04T06:37:00;17.10;99.90
25668;DHT22;18003;-33.830;151.202;2022-08-04T06:39:32;17.10;99.90
25668;DHT22;18003;-33.830;151.202;2022-08-04T06:42:04;17.20;99.90
25668;DHT22;18003;-33.830;151.202;2022-08-04T06:44:35;17.20;99.90
25668;DHT22;18003;-33.830;151.202;2022-08-04T06:47:06;17.20;99.90
25668;DHT22;18003;-33.830;151.202;2022-08-04T06:49:37;17.20;99.90
25668;DHT22;18003;-33.830;151.202;2022-08-04T06:52:08;17.20;99.90
25668;DHT22;18003;-33.830;151.202;2022-08-04T06:54:38;17.10;99.90
25668;DHT22;18003;-33.830;151.202;2022-08-04T06:57:08;17.10;99.90
25668;DHT22;18003;-33.830;151.202;2022-08-04T06:59:41;17.20;99.90
25668;DHT22;18003;-33.830;151.202;2022-08-04T07:02:14;17.20;99.90
25668;DHT22;18003;-33.830;151.202;2022-08-04T07:04:44;17.20;99.90
25668;DHT22;18003;-33.830;151.202;2022-08-04T07:07:15;17.10;99.90
25668;DHT22;18003;-33.830;151.202;2022-08-04T07:09:46;17.10;99.90
25668;DHT22;18003;-33.830;151.202;2022-08-04T07:12:17;17.10;99.90
25668;DHT22;18003;-33.830;151.202;2022-08-04T07:14:49;17.10;99.90
25668;DHT22;18003;-33.830;151.202;2022-08-04T07:17:21;17.10;99.90
25668;DHT22;18003;-33.830;151.202;2022-08-04T07:19:51;17.00;99.90
25668;DHT22;18003;-33.830;151.202;2022-08-04T07:22:23;17.00;99.90
25668;DHT22;18003;-33.830;151.202;2022-08-04T07:24:58;17.00;99.90
25668;DHT22;18003;-33.830;151.202;2022-08-04T07:27:25;17.00;99.90
25668;DHT22;18003;-33.830;151.202;2022-08-04T07:29:56;16.90;99.90
25668;DHT22;18003;-33.830;151.202;2022-08-04T07:32:26;16.90;99.90
25668;DHT22;18003;-33.830;151.202;2022-08-04T07:34:56;16.90;99.90
25668;DHT22;18003;-33.830;151.202;2022-08-04T07:37:27;16.90;99.90
25668;DHT22;18003;-33.830;151.202;2022-08-04T07:45:49;16.90;99.90
25668;DHT22;18003;-33.830;151.202;2022-08-04T07:48:37;16.90;99.90
25668;DHT22;18003;-33.830;151.202;2022-08-04T07:54:12;16.90;99.90
25668;DHT22;18003;-33.830;151.202;2022-08-04T07:57:00;16.90;99.90
25668;DHT22;18003;-33.830;151.202;2022-08-04T07:59:30;16.90;99.90
25668;DHT22;18003;-33.830;151.202;2022-08-04T08:02:01;16.80;99.90
25668;DHT22;18003;-33.830;151.202;2022-08-04T08:04:32;16.80;99.90
25668;DHT22;18003;-33.830;151.202;2022-08-04T08:07:02;16.80;99.90
25668;DHT22;18003;-33.830;151.202;2022-08-04T08:09:33;16.80;99.90
25668;DHT22;18003;-33.830;151.202;2022-08-04T08:12:03;16.80;99.90
25668;DHT22;18003;-33.830;151.202;2022-08-04T08:14:34;16.80;99.90
25668;DHT22;18003;-33.830;151.202;2022-08-04T08:17:05;16.80;99.90
25668;DHT22;18003;-33.830;151.202;2022-08-04T08:19:35;16.80;99.90
25668;DHT22;18003;-33.830;151.202;2022-08-04T08:22:05;16.70;99.90
25668;DHT22;18003;-33.830;151.202;2022-08-04T08:24:36;16.70;99.90
25668;DHT22;18003;-33.830;151.202;2022-08-04T08:27:06;16.70;99.90
25668;DHT22;18003;-33.830;151.202;2022-08-04T08:29:38;16.70;99.90
25668;DHT22;18003;-33.830;151.202;2022-08-04T08:32:10;16.70;99.90
25668;DHT22;18003;-33.830;151.202;2022-08-04T08:34:43;16.70;99.90
25668;DHT22;18003;-33.830;151.202;2022-08-04T08:40:17;16.70;99.90
25668;DHT22;18003;-33.830;151.202;2022-08-04T08:51:13;17.10;99.90
25668;DHT22;18003;-33.830;151.202;2022-08-04T09:00:44;17.30;99.90
25668;DHT22;18003;-33.830;151.202;2022-08-04T09:05:13;17.30;99.90
25668;DHT22;18003;-33.830;151.202;2022-08-04T09:10:38;17.30;99.90
25668;DHT22;18003;-33.830;151.202;2022-08-04T09:13:51;17.30;99.90
25668;DHT22;18003;-33.830;151.202;2022-08-04T09:24:19;17.30;99.90
25668;DHT22;18003;-33.830;151.202;2022-08-04T09:26:54;17.30;99.90
25668;DHT22;18003;-33.830;151.202;2022-08-04T09:38:31;17.30;99.90
25668;DHT22;18003;-33.830;151.202;2022-08-04T09:41:01;17.30;99.90
25668;DHT22;18003;-33.830;151.202;2022-08-04T09:46:29;17.20;99.90
25668;DHT22;18003;-33.830;151.202;2022-08-04T09:49:01;17.20;99.90
25668;DHT22;18003;-33.830;151.202;2022-08-04T09:51:43;17.20;99.90
25668;DHT22;18003;-33.830;151.202;2022-08-04T09:57:16;17.20;99.90
25668;DHT22;18003;-33.830;151.202;2022-08-04T10:00:02;17.20;99.90
25668;DHT22;18003;-33.830;151.202;2022-08-04T10:02:50;17.20;99.90
25668;DHT22;18003;-33.830;151.202;2022-08-04T10:05:22;17.20;99.90
25668;DHT22;18003;-33.830;151.202;2022-08-04T10:19:19;17.20;99.90
25668;DHT22;18003;-33.830;151.202;2022-08-04T10:28:14;17.10;99.90
25668;DHT22;18003;-33.830;151.202;2022-08-04T10:30:40;17.10;99.90
25668;DHT22;18003;-33.830;151.202;2022-08-04T10:33:14;17.10;99.90
25668;DHT22;18003;-33.830;151.202;2022-08-04T10:35:43;17.10;99.90
25668;DHT22;18003;-33.830;151.202;2022-08-04T10:38:29;17.10;99.90
25668;DHT22;18003;-33.830;151.202;2022-08-04T10:41:21;17.10;99.90
25668;DHT22;18003;-33.830;151.202;2022-08-04T10:43:50;17.00;99.90
25668;DHT22;18003;-33.830;151.202;2022-08-04T10:46:40;17.00;99.90
25668;DHT22;18003;-33.830;151.202;2022-08-04T10:49:13;17.00;99.90
25668;DHT22;18003;-33.830;151.202;2022-08-04T10:52:07;17.00;99.90
25668;DHT22;18003;-33.830;151.202;2022-08-04T10:54:47;17.00;99.90
25668;DHT22;18003;-33.830;151.202;2022-08-04T10:57:33;17.00;99.90
25668;DHT22;18003;-33.830;151.202;2022-08-04T11:00:08;17.00;99.90
25668;DHT22;18003;-33.830;151.202;2022-08-04T11:08:16;17.00;99.90
25668;DHT22;18003;-33.830;151.202;2022-08-04T11:10:45;17.00;99.90
25668;DHT22;18003;-33.830;151.202;2022-08-04T11:13:16;17.00;99.90
25668;DHT22;18003;-33.830;151.202;2022-08-04T11:15:54;17.00;99.90
25668;DHT22;18003;-33.830;151.202;2022-08-04T11:18:40;17.00;99.90
25668;DHT22;18003;-33.830;151.202;2022-08-04T11:21:28;17.00;99.90
25668;DHT22;18003;-33.830;151.202;2022-08-04T11:24:08;17.00;99.90
25668;DHT22;18003;-33.830;151.202;2022-08-04T11:26:55;17.00;99.90
25668;DHT22;18003;-33.830;151.202;2022-08-04T11:32:20;17.00;99.90
25668;DHT22;18003;-33.830;151.202;2022-08-04T11:34:51;17.00;99.90
25668;DHT22;18003;-33.830;151.202;2022-08-04T11:37:22;16.90;99.90
25668;DHT22;18003;-33.830;151.202;2022-08-04T11:40:06;17.00;99.90
25668;DHT22;18003;-33.830;151.202;2022-08-04T11:42:37;17.00;99.90
25668;DHT22;18003;-33.830;151.202;2022-08-04T11:45:06;17.00;99.90
25668;DHT22;18003;-33.830;151.202;2022-08-04T11:47:49;17.00;99.90
25668;DHT22;18003;-33.830;151.202;2022-08-04T11:50:42;17.00;99.90
25668;DHT22;18003;-33.830;151.202;2022-08-04T11:53:15;17.00;99.90
25668;DHT22;18003;-33.830;151.202;2022-08-04T11:55:42;17.00;99.90
25668;DHT22;18003;-33.830;151.202;2022-08-04T11:58:12;17.00;99.90
25668;DHT22;18003;-33.830;151.202;2022-08-04T12:06:11;16.90;99.90
25668;DHT22;18003;-33.830;151.202;2022-08-04T12:09:16;17.00;99.90
25668;DHT22;18003;-33.830;151.202;2022-08-04T12:17:05;16.90;99.90
25668;DHT22;18003;-33.830;151.202;2022-08-04T12:19:48;16.90;99.90
25668;DHT22;18003;-33.830;151.202;2022-08-04T12:22:17;16.90;99.90
25668;DHT22;18003;-33.830;151.202;2022-08-04T12:24:58;16.90;99.90
25668;DHT22;18003;-33.830;151.202;2022-08-04T12:27:23;16.90;99.90
25668;DHT22;18003;-33.830;151.202;2022-08-04T12:29:48;16.90;99.90
25668;DHT22;18003;-33.830;151.202;2022-08-04T12:32:28;16.90;99.90
25668;DHT22;18003;-33.830;151.202;2022-08-04T12:35:21;16.90;99.90
25668;DHT22;18003;-33.830;151.202;2022-08-04T12:37:59;16.90;99.90
25668;DHT22;18003;-33.830;151.202;2022-08-04T12:40:49;16.90;99.90
25668;DHT22;18003;-33.830;151.202;2022-08-04T12:43:39;16.90;99.90
25668;DHT22;18003;-33.830;151.202;2022-08-04T12:46:22;16.90;99.90
25668;DHT22;18003;-33.830;151.202;2022-08-04T12:48:53;16.90;99.90
25668;DHT22;18003;-33.830;151.202;2022-08-04T12:51:24;16.90;99.90
25668;DHT22;18003;-33.830;151.202;2022-08-04T12:53:54;16.90;99.90
25668;DHT22;18003;-33.830;151.202;2022-08-04T12:56:26;16.90;99.90
25668;DHT22;18003;-33.830;151.202;2022-08-04T12:58:59;16.90;99.90
25668;DHT22;18003;-33.830;151.202;2022-08-04T13:01:25;16.80;99.90
25668;DHT22;18003;-33.830;151.202;2022-08-04T13:03:58;16.90;99.90
25668;DHT22;18003;-33.830;151.202;2022-08-04T13:06:34;16.80;99.90
25668;DHT22;18003;-33.830;151.202;2022-08-04T13:09:10;16.90;99.90
25668;DHT22;18003;-33.830;151.202;2022-08-04T13:11:46;16.90;99.90
25668;DHT22;18003;-33.830;151.202;2022-08-04T13:14:15;16.90;99.90
25668;DHT22;18003;-33.830;151.202;2022-08-04T13:16:47;16.80;99.90
25668;DHT22;18003;-33.830;151.202;2022-08-04T13:19:18;16.80;99.90
25668;DHT22;18003;-33.830;151.202;2022-08-04T13:21:48;16.80;99.90
25668;DHT22;18003;-33.830;151.202;2022-08-04T13:24:21;16.80;99.90
25668;DHT22;18003;-33.830;151.202;2022-08-04T13:26:59;16.80;99.90
25668;DHT22;18003;-33.830;151.202;2022-08-04T13:29:42;16.80;99.90
25668;DHT22;18003;-33.830;151.202;2022-08-04T13:32:07;16.80;99.90
25668;DHT22;18003;-33.830;151.202;2022-08-04T13:34:39;16.80;99.90
25668;DHT22;18003;-33.830;151.202;2022-08-04T13:37:10;16.80;99.90
25668;DHT22;18003;-33.830;151.202;2022-08-04T13:39:47;16.80;99.90
25668;DHT22;18003;-33.830;151.202;2022-08-04T13:42:17;16.80;99.90
25668;DHT22;18003;-33.830;151.202;2022-08-04T13:44:51;16.80;99.90
25668;DHT22;18003;-33.830;151.202;2022-08-04T13:47:32;16.80;99.90
25668;DHT22;18003;-33.830;151.202;2022-08-04T13:50:08;16.80;99.90
25668;DHT22;18003;-33.830;151.202;2022-08-04T13:52:39;16.80;99.90
25668;DHT22;18003;-33.830;151.202;2022-08-04T13:55:32;16.80;99.90
25668;DHT22;18003;-33.830;151.202;2022-08-04T13:57:43;16.80;99.90
25668;DHT22;18003;-33.830;151.202;2022-08-04T14:00:13;16.80;99.90
25668;DHT22;18003;-33.830;151.202;2022-08-04T14:02:57;16.80;99.90
25668;DHT22;18003;-33.830;151.202;2022-08-04T14:05:24;16.80;99.90
25668;DHT22;18003;-33.830;151.202;2022-08-04T14:08:06;16.80;99.90
25668;DHT22;18003;-33.830;151.202;2022-08-04T14:10:36;16.80;99.90
25668;DHT22;18003;-33.830;151.202;2022-08-04T14:13:07;16.80;99.90
25668;DHT22;18003;-33.830;151.202;2022-08-04T14:15:39;16.80;99.90
25668;DHT22;18003;-33.830;151.202;2022-08-04T14:18:19;16.70;99.90
25668;DHT22;18003;-33.830;151.202;2022-08-04T14:21:07;16.70;99.90
25668;DHT22;18003;-33.830;151.202;2022-08-04T14:23:53;16.70;99.90
25668;DHT22;18003;-33.830;151.202;2022-08-04T14:26:26;16.70;99.90
25668;DHT22;18003;-33.830;151.202;2022-08-04T14:28:55;16.70;99.90
25668;DHT22;18003;-33.830;151.202;2022-08-04T14:31:26;16.70;99.90
25668;DHT22;18003;-33.830;151.202;2022-08-04T14:33:56;16.70;99.90
25668;DHT22;18003;-33.830;151.202;2022-08-04T14:36:26;16.70;99.90
25668;DHT22;18003;-33.830;151.202;2022-08-04T14:38:58;16.70;99.90
25668;DHT22;18003;-33.830;151.202;2022-08-04T14:41:29;16.70;99.90
25668;DHT22;18003;-33.830;151.202;2022-08-04T14:43:58;16.70;99.90
25668;DHT22;18003;-33.830;151.202;2022-08-04T14:46:29;16.70;99.90
25668;DHT22;18003;-33.830;151.202;2022-08-04T14:49:09;16.70;99.90
25668;DHT22;18003;-33.830;151.202;2022-08-04T14:51:42;16.70;99.90
25668;DHT22;18003;-33.830;151.202;2022-08-04T14:54:12;16.60;99.90
25668;DHT22;18003;-33.830;151.202;2022-08-04T14:56:50;16.60;99.90
25668;DHT22;18003;-33.830;151.202;2022-08-04T14:59:14;16.60;99.90
25668;DHT22;18003;-33.830;151.202;2022-08-04T15:01:45;16.60;99.90
25668;DHT22;18003;-33.830;151.202;2022-08-04T15:04:17;16.60;99.90
25668;DHT22;18003;-33.830;151.202;2022-08-04T15:06:47;16.60;99.90
25668;DHT22;18003;-33.830;151.202;2022-08-04T15:09:17;16.60;99.90
25668;DHT22;18003;-33.830;151.202;2022-08-04T15:11:48;16.60;99.90
25668;DHT22;18003;-33.830;151.202;2022-08-04T15:14:18;16.60;99.90
25668;DHT22;18003;-33.830;151.202;2022-08-04T15:16:49;16.60;99.90
25668;DHT22;18003;-33.830;151.202;2022-08-04T15:19:20;16.60;99.90
25668;DHT22;18003;-33.830;151.202;2022-08-04T15:21:50;16.60;99.90
25668;DHT22;18003;-33.830;151.202;2022-08-04T15:24:21;16.60;99.90
25668;DHT22;18003;-33.830;151.202;2022-08-04T15:26:52;16.50;99.90
25668;DHT22;18003;-33.830;151.202;2022-08-04T15:29:42;16.50;99.90
25668;DHT22;18003;-33.830;151.202;2022-08-04T15:32:15;16.50;99.90
25668;DHT22;18003;-33.830;151.202;2022-08-04T15:34:49;16.50;99.90
25668;DHT22;18003;-33.830;151.202;2022-08-04T15:37:36;16.50;99.90
25668;DHT22;18003;-33.830;151.202;2022-08-04T15:45:52;16.50;99.90
25668;DHT22;18003;-33.830;151.202;2022-08-04T15:48:23;16.50;99.90
25668;DHT22;18003;-33.830;151.202;2022-08-04T15:59:00;16.50;99.90
25668;DHT22;18003;-33.830;151.202;2022-08-04T16:01:30;16.50;99.90
25668;DHT22;18003;-33.830;151.202;2022-08-04T16:04:04;16.50;99.90
25668;DHT22;18003;-33.830;151.202;2022-08-04T16:09:06;16.40;99.90
25668;DHT22;18003;-33.830;151.202;2022-08-04T16:11:37;16.40;99.90
25668;DHT22;18003;-33.830;151.202;2022-08-04T16:14:10;16.40;99.90
25668;DHT22;18003;-33.830;151.202;2022-08-04T16:19:44;16.40;99.90
25668;DHT22;18003;-33.830;151.202;2022-08-04T16:22:07;16.40;99.90
25668;DHT22;18003;-33.830;151.202;2022-08-04T16:24:41;16.40;99.90
25668;DHT22;18003;-33.830;151.202;2022-08-04T16:27:12;16.40;99.90
25668;DHT22;18003;-33.830;151.202;2022-08-04T16:29:44;16.40;99.90
25668;DHT22;18003;-33.830;151.202;2022-08-04T16:32:16;16.40;99.90
25668;DHT22;18003;-33.830;151.202;2022-08-04T16:37:19;16.40;99.90
25668;DHT22;18003;-33.830;151.202;2022-08-04T16:39:49;16.40;99.90
25668;DHT22;18003;-33.830;151.202;2022-08-04T16:42:31;16.40;99.90
25668;DHT22;18003;-33.830;151.202;2022-08-04T16:45:09;16.40;99.90
25668;DHT22;18003;-33.830;151.202;2022-08-04T16:50:21;16.30;99.90
25668;DHT22;18003;-33.830;151.202;2022-08-04T16:52:53;16.30;99.90
25668;DHT22;18003;-33.830;151.202;2022-08-04T16:55:27;16.30;99.90
25668;DHT22;18003;-33.830;151.202;2022-08-04T16:57:56;16.30;99.90
25668;DHT22;18003;-33.830;151.202;2022-08-04T17:00:36;16.30;99.90
25668;DHT22;18003;-33.830;151.202;2022-08-04T17:03:08;16.30;99.90
25668;DHT22;18003;-33.830;151.202;2022-08-04T17:05:38;16.30;99.90
25668;DHT22;18003;-33.830;151.202;2022-08-04T17:08:08;16.30;99.90
25668;DHT22;18003;-33.830;151.202;2022-08-04T17:10:42;16.30;99.90
25668;DHT22;18003;-33.830;151.202;2022-08-04T17:13:30;16.30;99.90
25668;DHT22;18003;-33.830;151.202;2022-08-04T17:16:02;16.30;99.90
25668;DHT22;18003;-33.830;151.202;2022-08-04T17:18:34;16.30;99.90
25668;DHT22;18003;-33.830;151.202;2022-08-04T17:21:11;16.30;99.90
25668;DHT22;18003;-33.830;151.202;2022-08-04T17:23:42;16.30;99.90
25668;DHT22;18003;-33.830;151.202;2022-08-04T17:26:13;16.30;99.90
25668;DHT22;18003;-33.830;151.202;2022-08-04T17:28:46;16.30;99.90
25668;DHT22;18003;-33.830;151.202;2022-08-04T17:31:16;16.30;99.90
25668;DHT22;18003;-33.830;151.202;2022-08-04T17:33:48;16.30;99.90
25668;DHT22;18003;-33.830;151.202;2022-08-04T17:36:17;16.20;99.90
25668;DHT22;18003;-33.830;151.202;2022-08-04T17:38:50;16.20;99.90
25668;DHT22;18003;-33.830;151.202;2022-08-04T17:41:24;16.20;99.90
25668;DHT22;18003;-33.830;151.202;2022-08-04T17:43:56;16.20;99.90
25668;DHT22;18003;-33.830;151.202;2022-08-04T17:46:38;16.20;99.90
25668;DHT22;18003;-33.830;151.202;2022-08-04T17:51:49;16.20;99.90
25668;DHT22;18003;-33.830;151.202;2022-08-04T17:54:28;16.20;99.90
25668;DHT22;18003;-33.830;151.202;2022-08-04T17:56:49;16.20;99.90
25668;DHT22;18003;-33.830;151.202;2022-08-04T17:59:21;16.20;99.90
25668;DHT22;18003;-33.830;151.202;2022-08-04T18:01:55;16.20;99.90
25668;DHT22;18003;-33.830;151.202;2022-08-04T18:04:33;16.20;99.90
25668;DHT22;18003;-33.830;151.202;2022-08-04T18:07:20;16.20;99.90
25668;DHT22;18003;-33.830;151.202;2022-08-04T18:09:51;16.20;99.90
25668;DHT22;18003;-33.830;151.202;2022-08-04T18:14:59;16.20;99.90
25668;DHT22;18003;-33.830;151.202;2022-08-04T18:17:38;16.20;99.90
25668;DHT22;18003;-33.830;151.202;2022-08-04T18:20:11;16.20;99.90
25668;DHT22;18003;-33.830;151.202;2022-08-04T18:22:44;16.20;99.90
25668;DHT22;18003;-33.830;151.202;2022-08-04T18:25:16;16.20;99.90
25668;DHT22;18003;-33.830;151.202;2022-08-04T18:27:52;16.20;99.90
25668;DHT22;18003;-33.830;151.202;2022-08-04T18:30:23;16.20;99.90
25668;DHT22;18003;-33.830;151.202;2022-08-04T18:32:53;16.20;99.90
25668;DHT22;18003;-33.830;151.202;2022-08-04T18:35:24;16.20;99.90
25668;DHT22;18003;-33.830;151.202;2022-08-04T18:37:55;16.10;99.90
25668;DHT22;18003;-33.830;151.202;2022-08-04T18:40:25;16.20;99.90
25668;DHT22;18003;-33.830;151.202;2022-08-04T18:42:55;16.10;99.90
25668;DHT22;18003;-33.830;151.202;2022-08-04T18:45:25;16.10;99.90
25668;DHT22;18003;-33.830;151.202;2022-08-04T18:47:55;16.10;99.90
25668;DHT22;18003;-33.830;151.202;2022-08-04T18:50:25;16.10;99.90
25668;DHT22;18003;-33.830;151.202;2022-08-04T18:52:56;16.10;99.90
25668;DHT22;18003;-33.830;151.202;2022-08-04T18:55:26;16.10;99.90
25668;DHT22;18003;-33.830;151.202;2022-08-04T18:57:58;16.10;99.90
25668;DHT22;18003;-33.830;151.202;2022-08-04T19:00:28;16.10;99.90
25668;DHT22;18003;-33.830;151.202;2022-08-04T19:02:58;16.10;99.90
25668;DHT22;18003;-33.830;151.202;2022-08-04T19:05:28;16.10;99.90
25668;DHT22;18003;-33.830;151.202;2022-08-04T19:07:58;16.10;99.90
25668;DHT22;18003;-33.830;151.202;2022-08-04T19:10:28;16.10;99.90
25668;DHT22;18003;-33.830;151.202;2022-08-04T19:12:58;16.10;99.90
25668;DHT22;18003;-33.830;151.202;2022-08-04T19:15:28;16.10;99.90
25668;DHT22;18003;-33.830;151.202;2022-08-04T19:17:59;16.10;99.90
25668;DHT22;18003;-33.830;151.202;2022-08-04T19:20:29;16.10;99.90
25668;DHT22;18003;-33.830;151.202;2022-08-04T19:23:00;16.10;99.90
25668;DHT22;18003;-33.830;151.202;2022-08-04T19:25:30;16.10;99.90
25668;DHT22;18003;-33.830;151.202;2022-08-04T19:28:01;16.00;99.90
25668;DHT22;18003;-33.830;151.202;2022-08-04T19:30:31;16.00;99.90
25668;DHT22;18003;-33.830;151.202;2022-08-04T19:33:01;16.00;99.90
25668;DHT22;18003;-33.830;151.202;2022-08-04T19:35:31;16.00;99.90
25668;DHT22;18003;-33.830;151.202;2022-08-04T19:38:01;16.00;99.90
25668;DHT22;18003;-33.830;151.202;2022-08-04T19:40:31;16.00;99.90
25668;DHT22;18003;-33.830;151.202;2022-08-04T19:43:01;16.00;99.90
25668;DHT22;18003;-33.830;151.202;2022-08-04T19:45:31;16.00;99.90
25668;DHT22;18003;-33.830;151.202;2022-08-04T19:48:01;16.00;99.90